This is the latest recevied weather packets stored in our database for station/object XQ6AK-15. If no packets are shown the sender has not sent any weather packets the latest 10 day(s).
| Time | Temp. | Humidity | Pressure | Rain* | Wind** | Luminosity | Snow |
|---|---|---|---|---|---|---|---|
| 1787504717 | 15.56° C | 68% | 1015.5 hPa | 0 mm | - | 482 W/m² | - |
| 1787504414 | 15° C | 69% | 1015.9 hPa | 0 mm | - | 507 W/m² | - |
| 1787504109 | 15° C | 66% | 1016.2 hPa | 0 mm | - | 503 W/m² | - |
| 1787503804 | 14.44° C | 69% | 1016.1 hPa | 0 mm | - | 482 W/m² | - |
| 1787503499 | 14.44° C | 68% | 1016.4 hPa | 0 mm | - | 475 W/m² | - |
| 1787503196 | 14.44° C | 69% | 1016.5 hPa | 0 mm | - | 482 W/m² | - |
| 1787502891 | 13.89° C | 69% | 1016.4 hPa | 0 mm | - | 494 W/m² | - |
| 1787502586 | 14.44° C | 68% | 1016.2 hPa | 0 mm | - | 513 W/m² | - |
| 1787502286 | 13.89° C | 70% | 1016.3 hPa | 0 mm | - | 505 W/m² | - |
| 1787501982 | 14.44° C | 71% | 1016.3 hPa | 0 mm | - | 509 W/m² | - |
| 1787501678 | 13.89° C | 75% | 1016.6 hPa | 0 mm | - | 497 W/m² | - |
| 1787501372 | 12.78° C | 77% | 1016.6 hPa | 0 mm | - | 484 W/m² | - |
| 1787501070 | 13.33° C | 76% | 1016.6 hPa | 0 mm | - | 522 W/m² | - |
| 1787500764 | 12.78° C | 76% | 1016.6 hPa | 0 mm | - | 521 W/m² | - |
| 1787500461 | 12.78° C | 77% | 1016.7 hPa | 0 mm | - | 485 W/m² | - |
| 1787500155 | 11.67° C | 82% | 1016.7 hPa | 0 mm | - | 480 W/m² | - |
| 1787499849 | 11.67° C | 82% | 1016.9 hPa | 0 mm | - | 528 W/m² | - |
| 1787499544 | 11.67° C | 81% | 1017.1 hPa | 0 mm | - | 508 W/m² | - |
| 1787499240 | 10.56° C | 86% | 1017 hPa | 0 mm | - | 457 W/m² | - |
| 1787498936 | 10.56° C | 85% | 1016.9 hPa | 0 mm | - | 449 W/m² | - |
| 1787498633 | 10° C | 86% | 1016.9 hPa | 0 mm | - | 416 W/m² | - |
| 1787498329 | 10° C | 91% | 1016.8 hPa | 0 mm | - | 489 W/m² | - |
| 1787498019 | 8.89° C | 97% | 1017.1 hPa | 0 mm | - | 450 W/m² | - |
| 1787497714 | 7.78° C | 99% | 1017.1 hPa | 0 mm | - | 421 W/m² | - |
| 1787497410 | 7.78° C | 99% | 1017.3 hPa | 0 mm | - | 424 W/m² | - |
* Rain latest hour (hover to see other rain measurements)
** Current wind speed in m/s (hover to see current wind gust speed)